Time;durP1;ratioP1;P1;durP2;ratioP2;P2;SDS_P1;SDS_P2;PMS_P1;PMS_P2;Temp;Humidity;BMP_temperature;BMP_pressure;BME280_temperature;BME280_humidity;BME280_pressure;Samples;Min_cycle;Max_cycle;Signal;HPM_P1;HPM_P2
2022/06/25 00:00:43;;;;;;;12.18;8.38;;;20.20;99.90;;;;;;12400174;28;20062;-80
2022/06/25 00:06:45;;;;;;;9.65;8.10;;;20.20;99.90;;;;;;12370708;28;20173;-82
2022/06/25 00:12:47;;;;;;;9.02;7.25;;;20.30;99.90;;;;;;12422480;28;20458;-80
2022/06/25 00:18:49;;;;;;;10.43;7.30;;;20.20;99.90;;;;;;12378329;28;20129;-81
2022/06/25 00:24:51;;;;;;;7.60;6.43;;;20.10;99.90;;;;;;12380543;28;20082;-81
2022/06/25 00:30:53;;;;;;;8.27;6.35;;;20.00;99.90;;;;;;12379039;28;20070;-81
2022/06/25 00:36:54;;;;;;;5.95;5.35;;;20.10;99.90;;;;;;12358714;28;20046;-81
2022/06/25 00:42:56;;;;;;;7.25;5.20;;;20.00;99.90;;;;;;12354064;28;20038;-81
2022/06/25 00:48:58;;;;;;;5.60;4.70;;;20.00;99.90;;;;;;12366046;28;20113;-81
2022/06/25 00:55:12;;;;;;;4.65;4.00;;;20.10;99.90;;;;;;12365374;28;20079;-81
2022/06/25 01:01:14;;;;;;;;;;;20.00;99.90;;;;;;12357143;28;20626;-81
2022/06/25 01:07:17;;;;;;;5.38;3.58;;;20.20;99.90;;;;;;12362008;28;19922;-81
2022/06/25 01:13:22;;;;;;;5.87;4.00;;;20.10;99.90;;;;;;12376875;28;20141;-81
2022/06/25 01:19:24;;;;;;;5.10;3.80;;;20.00;99.90;;;;;;12377727;28;20364;-82
2022/06/25 01:25:34;;;;;;;5.40;3.40;;;20.00;99.90;;;;;;12371889;28;20051;-81
2022/06/25 01:31:37;;;;;;;5.57;3.72;;;20.00;99.90;;;;;;12392784;28;20792;-81
2022/06/25 01:37:39;;;;;;;6.50;3.70;;;20.00;99.90;;;;;;12390436;28;20050;-81
2022/06/25 01:43:40;;;;;;;4.93;3.40;;;20.00;99.90;;;;;;12385523;28;20069;-81
2022/06/25 01:49:42;;;;;;;7.50;3.33;;;19.90;99.90;;;;;;12367618;28;20084;-80
2022/06/25 01:55:44;;;;;;;5.35;3.28;;;19.70;99.90;;;;;;12402165;28;20041;-81
2022/06/25 02:01:46;;;;;;;7.10;3.95;;;19.70;99.90;;;;;;12356833;28;20137;-80
2022/06/25 02:07:48;;;;;;;10.07;4.63;;;19.60;99.90;;;;;;12379663;28;20503;-81
2022/06/25 02:13:50;;;;;;;5.32;3.92;;;19.60;99.90;;;;;;12373522;28;20116;-81
2022/06/25 02:19:51;;;;;;;5.78;3.97;;;19.60;99.90;;;;;;12376816;28;20060;-81
2022/06/25 02:25:53;;;;;;;5.38;3.88;;;19.50;99.90;;;;;;12387587;28;20193;-80
2022/06/25 02:31:55;;;;;;;4.72;3.88;;;19.50;99.90;;;;;;12391019;28;20133;-82
2022/06/25 02:37:57;;;;;;;6.32;3.33;;;19.40;99.90;;;;;;12377827;28;20571;-81
2022/06/25 02:43:59;;;;;;;4.25;2.97;;;19.50;99.90;;;;;;12373873;28;20050;-80
2022/06/25 02:50:01;;;;;;;3.83;3.28;;;19.40;99.90;;;;;;12355707;28;20069;-81
2022/06/25 03:02:27;;;;;;;5.88;3.35;;;19.30;99.90;;;;;;12383081;28;20117;-80
2022/06/25 03:08:29;;;;;;;4.28;3.28;;;19.30;99.90;;;;;;12393056;28;20117;-80
2022/06/25 03:14:31;;;;;;;5.60;3.10;;;19.10;99.90;;;;;;12375404;28;20066;-81
2022/06/25 03:20:33;;;;;;;5.90;2.40;;;19.00;99.90;;;;;;12337208;28;20550;-81
2022/06/25 03:26:35;;;;;;;5.22;2.60;;;19.00;99.90;;;;;;12324835;28;20101;-81
2022/06/25 03:32:37;;;;;;;4.95;2.75;;;19.00;99.90;;;;;;12342674;28;20054;-81
2022/06/25 03:38:38;;;;;;;5.93;2.88;;;19.10;99.90;;;;;;12326803;28;20177;-80
2022/06/25 03:44:40;;;;;;;4.65;3.03;;;19.00;99.90;;;;;;12339272;28;20038;-80
2022/06/25 03:50:42;;;;;;;4.07;2.60;;;19.00;99.90;;;;;;12320638;28;20051;-80
2022/06/25 03:56:44;;;;;;;5.18;3.00;;;18.90;99.90;;;;;;12310908;28;20407;-80
2022/06/25 04:02:46;;;;;;;6.00;2.67;;;18.80;99.90;;;;;;12329905;28;20186;-80
2022/06/25 04:08:48;;;;;;;3.88;2.83;;;18.80;99.90;;;;;;12348815;28;20059;-81
2022/06/25 04:14:49;;;;;;;7.47;3.40;;;18.90;99.90;;;;;;12353499;28;20074;-80
2022/06/25 04:20:51;;;;;;;3.40;2.58;;;18.90;99.90;;;;;;12405196;28;20043;-81
2022/06/25 04:26:53;;;;;;;3.60;2.60;;;18.90;99.90;;;;;;12378394;28;20141;-81
2022/06/25 04:32:55;;;;;;;4.80;2.80;;;18.90;99.90;;;;;;12362974;28;20111;-81
2022/06/25 04:38:57;;;;;;;4.30;2.55;;;19.00;99.90;;;;;;12376349;28;20113;-81
2022/06/25 04:44:58;;;;;;;3.45;2.30;;;18.90;99.90;;;;;;12379726;28;20422;-80
2022/06/25 04:51:00;;;;;;;6.03;2.78;;;18.90;99.90;;;;;;12367013;28;20057;-80
2022/06/25 04:57:02;;;;;;;3.50;2.63;;;19.00;99.90;;;;;;12370075;28;20054;-81
2022/06/25 05:03:04;;;;;;;4.20;2.30;;;19.00;99.90;;;;;;12354015;28;20058;-81
2022/06/25 05:09:06;;;;;;;3.60;2.20;;;19.00;99.90;;;;;;12376479;28;20054;-81
2022/06/25 05:15:08;;;;;;;6.30;2.30;;;19.20;99.90;;;;;;12348919;28;20457;-80
2022/06/25 05:21:10;;;;;;;3.55;2.00;;;19.30;99.90;;;;;;12373308;28;20145;-81
2022/06/25 05:27:18;;;;;;;5.78;2.15;;;19.40;99.90;;;;;;12365711;28;20075;-80
2022/06/25 05:33:20;;;;;;;4.22;1.95;;;19.60;99.90;;;;;;12362913;28;20134;-81
2022/06/25 05:39:22;;;;;;;3.97;2.03;;;19.70;99.90;;;;;;12372638;28;20927;-81
2022/06/25 05:45:24;;;;;;;5.25;1.92;;;19.70;99.90;;;;;;12373241;28;20259;-80
2022/06/25 05:51:25;;;;;;;4.72;2.00;;;19.60;99.90;;;;;;12368551;28;20054;-81
2022/06/25 05:57:27;;;;;;;4.95;2.22;;;19.60;99.90;;;;;;12374958;28;20122;-80
2022/06/25 06:03:29;;;;;;;4.22;2.30;;;19.50;99.90;;;;;;12371861;28;20406;-80
2022/06/25 06:09:32;;;;;;;7.40;2.17;;;19.70;99.90;;;;;;12365466;28;20043;-81
2022/06/25 06:15:34;;;;;;;3.75;2.00;;;19.80;99.90;;;;;;12394477;28;20133;-80
2022/06/25 06:21:35;;;;;;;12.27;2.47;;;19.80;99.90;;;;;;12373566;28;20617;-81
2022/06/25 06:27:37;;;;;;;5.07;2.17;;;19.70;99.90;;;;;;12398963;28;20422;-79
2022/06/25 06:33:39;;;;;;;5.32;2.13;;;19.80;99.90;;;;;;12416784;28;20022;-81
2022/06/25 06:39:41;;;;;;;3.97;2.00;;;20.20;99.90;;;;;;12358052;28;20129;-80
2022/06/25 06:45:42;;;;;;;6.70;1.92;;;20.10;99.90;;;;;;12352038;28;20130;-80
2022/06/25 06:51:44;;;;;;;3.97;1.70;;;20.30;99.90;;;;;;12384354;28;20494;-80
2022/06/25 06:57:46;;;;;;;12.98;2.42;;;20.20;99.90;;;;;;12368741;28;20055;-80
2022/06/25 07:03:48;;;;;;;4.72;1.98;;;20.50;99.90;;;;;;12370533;28;20057;-80
2022/06/25 07:09:50;;;;;;;3.13;1.70;;;20.50;99.90;;;;;;12386734;28;20095;-79
2022/06/25 07:15:52;;;;;;;6.70;2.17;;;20.70;99.90;;;;;;12387592;28;20602;-81
2022/06/25 07:21:54;;;;;;;4.97;2.10;;;20.70;99.90;;;;;;12387035;28;20081;-80
2022/06/25 07:27:56;;;;;;;5.75;1.90;;;20.70;99.90;;;;;;12350799;28;20461;-81
2022/06/25 07:33:58;;;;;;;5.15;1.90;;;20.80;99.90;;;;;;12391718;28;20042;-81
2022/06/25 07:40:00;;;;;;;5.80;2.05;;;21.00;99.90;;;;;;12352448;28;20556;-81
2022/06/25 07:46:02;;;;;;;6.00;2.00;;;21.00;99.90;;;;;;12369015;28;20100;-80
2022/06/25 07:52:05;;;;;;;12.47;1.80;;;20.90;99.90;;;;;;12353177;28;20059;-81
2022/06/25 07:58:06;;;;;;;3.45;1.50;;;20.90;99.90;;;;;;12354717;28;20457;-80
2022/06/25 08:04:08;;;;;;;5.97;1.85;;;21.00;99.90;;;;;;12373495;28;20181;-80
2022/06/25 08:10:10;;;;;;;4.60;1.60;;;21.10;99.90;;;;;;12360971;28;20112;-81
2022/06/25 08:16:12;;;;;;;4.10;1.58;;;21.20;99.90;;;;;;12376871;28;20078;-80
2022/06/25 08:22:14;;;;;;;5.03;1.23;;;21.30;99.90;;;;;;12373372;28;20046;-81
2022/06/25 08:28:16;;;;;;;4.07;1.55;;;21.40;99.90;;;;;;12384409;28;20070;-80
2022/06/25 08:34:17;;;;;;;3.97;1.20;;;21.40;99.90;;;;;;12390030;28;20502;-79
2022/06/25 08:40:21;;;;;;;3.97;1.35;;;21.50;99.90;;;;;;12368851;28;20047;-80
2022/06/25 08:46:23;;;;;;;;;;;21.80;99.90;;;;;;12363153;28;20137;-81
2022/06/25 08:52:27;;;;;;;4.57;1.30;;;22.00;99.90;;;;;;12364704;28;19934;-80
2022/06/25 08:58:29;;;;;;;4.78;1.20;;;22.10;99.90;;;;;;12370356;28;20120;-80
2022/06/25 09:04:31;;;;;;;2.80;1.15;;;22.20;99.90;;;;;;12363146;28;20038;-81
2022/06/25 09:10:35;;;;;;;3.42;1.23;;;22.60;99.90;;;;;;12379004;28;20050;-81
2022/06/25 09:16:37;;;;;;;4.10;0.98;;;22.80;99.90;;;;;;12380564;28;20054;-80
2022/06/25 09:22:39;;;;;;;4.45;1.10;;;23.00;99.90;;;;;;12401912;28;20533;-81
2022/06/25 09:28:46;;;;;;;5.05;1.55;;;22.90;99.90;;;;;;12371602;28;20053;-81
2022/06/25 09:34:47;;;;;;;4.75;1.40;;;23.00;99.90;;;;;;12391055;28;20069;-81
2022/06/25 09:40:52;;;;;;;3.85;1.10;;;23.20;99.90;;;;;;12356299;28;20125;-81
2022/06/25 09:46:56;;;;;;;1.95;1.00;;;23.30;99.90;;;;;;12346999;28;20055;-82
2022/06/25 09:52:59;;;;;;;2.38;1.20;;;23.40;99.90;;;;;;12372016;28;20042;-82
2022/06/25 09:59:01;;;;;;;2.97;1.40;;;23.50;99.90;;;;;;12387646;28;20050;-82
2022/06/25 10:05:04;;;;;;;4.93;1.08;;;23.30;99.90;;;;;;12367728;28;20505;-81
2022/06/25 10:11:08;;;;;;;1.80;1.00;;;23.10;99.90;;;;;;12360881;28;20173;-81
2022/06/25 10:17:10;;;;;;;4.25;1.38;;;23.10;99.90;;;;;;12372506;28;20491;-80
2022/06/25 10:23:15;;;;;;;2.78;1.00;;;23.00;99.90;;;;;;12376605;28;20054;-81
2022/06/25 10:29:27;;;;;;;5.18;1.40;;;23.50;99.90;;;;;;12366788;28;20487;-81
2022/06/25 10:35:32;;;;;;;3.75;1.23;;;23.60;99.90;;;;;;12393216;28;20089;-80
2022/06/25 10:47:57;;;;;;;3.10;0.90;;;23.60;99.90;;;;;;12341208;28;20146;-82
2022/06/25 10:54:02;;;;;;;6.30;1.25;;;24.30;99.90;;;;;;12374739;28;20101;-81
2022/06/25 11:00:04;;;;;;;2.92;1.10;;;24.20;99.90;;;;;;12370306;28;20560;-80
2022/06/25 11:06:24;;;;;;;2.27;1.00;;;24.40;99.90;;;;;;12367716;28;20136;-81
2022/06/25 11:12:28;;;;;;;3.45;1.10;;;24.60;99.90;;;;;;12372873;28;20108;-82
2022/06/25 11:18:30;;;;;;;6.25;1.15;;;25.00;99.90;;;;;;12357404;28;20134;-82
2022/06/25 11:24:33;;;;;;;4.72;1.20;;;25.50;99.90;;;;;;12368718;28;20043;-82
2022/06/25 11:30:35;;;;;;;5.00;1.15;;;26.00;99.90;;;;;;12374217;28;20046;-82
2022/06/25 11:36:37;;;;;;;4.07;1.10;;;26.00;99.90;;;;;;12378876;28;20105;-82
2022/06/25 11:42:39;;;;;;;2.45;0.98;;;25.90;99.90;;;;;;12379410;28;21171;-82
2022/06/25 11:48:41;;;;;;;3.97;0.95;;;26.00;99.90;;;;;;12363100;28;20049;-82
2022/06/25 11:54:44;;;;;;;1.53;0.77;;;26.20;99.90;;;;;;12361878;28;20168;-82
2022/06/25 12:00:46;;;;;;;1.52;0.80;;;26.00;99.90;;;;;;12371498;28;20106;-81
2022/06/25 12:06:48;;;;;;;6.95;1.00;;;25.40;99.90;;;;;;12360569;28;20549;-81
2022/06/25 12:12:50;;;;;;;2.58;1.02;;;25.40;99.90;;;;;;12365011;28;20649;-82
2022/06/25 12:18:55;;;;;;;1.90;0.97;;;25.70;99.90;;;;;;12357441;28;20242;-80
2022/06/25 12:24:59;;;;;;;1.77;0.90;;;25.60;99.90;;;;;;12386521;28;20395;-81
2022/06/25 12:31:09;;;;;;;2.28;0.90;;;25.80;99.90;;;;;;12371440;28;20073;-81
2022/06/25 12:37:11;;;;;;;3.35;0.80;;;26.00;99.90;;;;;;12369936;28;20047;-82
2022/06/25 12:43:19;;;;;;;2.78;1.15;;;26.40;99.90;;;;;;12355951;28;20111;-82
2022/06/25 12:49:46;;;;;;;1.38;0.80;;;26.30;99.90;;;;;;12342013;28;20089;-81
2022/06/25 12:55:49;;;;;;;2.65;0.98;;;26.20;99.90;;;;;;12359112;28;20165;-82
2022/06/25 13:01:51;;;;;;;2.20;1.10;;;26.40;99.90;;;;;;12372306;28;20129;-81
2022/06/25 13:07:53;;;;;;;2.97;1.10;;;26.30;99.90;;;;;;12391621;28;20184;-81
2022/06/25 13:13:55;;;;;;;4.53;1.27;;;25.70;99.90;;;;;;12346528;28;20522;-82
2022/06/25 13:19:57;;;;;;;1.75;0.93;;;25.40;99.90;;;;;;12343588;28;20054;-81
2022/06/25 13:25:58;;;;;;;1.52;1.00;;;25.20;99.90;;;;;;12317931;28;20046;-81
2022/06/25 13:32:01;;;;;;;1.48;1.00;;;24.90;99.90;;;;;;12328614;28;20051;-81
2022/06/25 13:38:03;;;;;;;3.00;1.20;;;24.70;99.90;;;;;;12333922;28;20125;-81
2022/06/25 13:44:04;;;;;;;3.95;1.10;;;24.50;99.90;;;;;;12317082;28;20523;-80
2022/06/25 13:50:07;;;;;;;1.83;0.80;;;24.30;99.90;;;;;;12324697;28;20059;-81
2022/06/25 13:56:09;;;;;;;3.47;0.80;;;24.20;99.90;;;;;;12311689;28;20044;-82
2022/06/25 14:02:11;;;;;;;4.50;0.80;;;24.60;99.90;;;;;;12318276;28;20063;-82
2022/06/25 14:08:12;;;;;;;2.08;0.93;;;25.10;99.90;;;;;;12355394;28;20185;-81
2022/06/25 14:14:14;;;;;;;4.00;1.05;;;25.60;99.90;;;;;;12342281;28;20546;-82
2022/06/25 14:20:16;;;;;;;2.55;1.00;;;25.80;99.90;;;;;;12336583;28;20059;-82
2022/06/25 14:26:18;;;;;;;1.27;0.90;;;25.80;99.90;;;;;;12369305;28;20072;-81
2022/06/25 14:32:20;;;;;;;3.65;1.05;;;26.10;99.90;;;;;;12332601;28;20130;-81
2022/06/25 14:44:42;;;;;;;4.63;1.10;;;26.00;99.90;;;;;;12339463;28;20039;-82
2022/06/25 14:50:45;;;;;;;2.93;1.10;;;26.00;99.90;;;;;;12326247;28;20053;-82
2022/06/25 14:56:51;;;;;;;2.38;0.90;;;25.90;99.90;;;;;;12320989;28;20481;-81
2022/06/25 15:02:53;;;;;;;2.28;0.93;;;25.60;99.90;;;;;;12336017;28;20130;-82
2022/06/25 15:08:54;;;;;;;2.22;1.02;;;25.60;99.90;;;;;;12343567;28;20093;-82
2022/06/25 15:14:56;;;;;;;2.42;1.40;;;25.70;99.90;;;;;;12350349;28;20511;-81
2022/06/25 15:20:58;;;;;;;1.63;0.90;;;25.80;99.90;;;;;;12340932;28;20110;-82
2022/06/25 15:27:03;;;;;;;23.45;18.60;;;25.60;99.90;;;;;;12327423;28;20043;-82
2022/06/25 15:33:06;;;;;;;5.35;2.10;;;25.80;99.90;;;;;;12321745;28;20102;-82
2022/06/25 15:39:08;;;;;;;3.35;0.93;;;25.90;99.90;;;;;;12325159;28;20472;-82
2022/06/25 15:45:10;;;;;;;2.60;1.10;;;26.00;99.90;;;;;;12342095;28;20517;-82
2022/06/25 15:51:12;;;;;;;1.97;1.20;;;25.70;99.90;;;;;;12326001;28;20141;-83
2022/06/25 15:57:14;;;;;;;2.65;1.40;;;25.60;99.90;;;;;;12352300;28;20066;-82
2022/06/25 16:03:16;;;;;;;2.30;1.17;;;25.40;99.90;;;;;;12366255;28;20046;-83
2022/06/25 16:09:18;;;;;;;3.47;1.10;;;25.20;99.90;;;;;;12353987;28;20042;-83
2022/06/25 16:15:20;;;;;;;2.75;1.20;;;25.00;99.90;;;;;;12328160;28;20047;-83
2022/06/25 16:21:22;;;;;;;3.10;1.25;;;25.00;99.90;;;;;;12367627;28;20046;-83
2022/06/25 16:27:24;;;;;;;2.72;1.40;;;25.10;99.90;;;;;;12349808;28;20093;-83
2022/06/25 16:33:26;;;;;;;3.55;2.05;;;25.30;99.90;;;;;;12375171;28;20192;-82
2022/06/25 16:39:32;;;;;;;2.10;1.10;;;25.30;99.90;;;;;;12364716;28;20046;-82
2022/06/25 16:45:34;;;;;;;5.35;1.08;;;25.20;99.90;;;;;;12339334;28;20116;-82
2022/06/25 16:51:36;;;;;;;3.67;1.40;;;25.00;99.90;;;;;;12379453;28;20050;-82
2022/06/25 16:57:38;;;;;;;6.05;1.20;;;25.00;99.90;;;;;;12361335;28;20475;-82
2022/06/25 17:03:41;;;;;;;4.32;1.10;;;25.00;99.90;;;;;;12385934;28;20537;-82
2022/06/25 17:09:43;;;;;;;2.75;1.05;;;24.80;99.90;;;;;;12379343;28;20050;-82
2022/06/25 17:15:45;;;;;;;1.88;1.10;;;24.90;99.90;;;;;;12367377;28;20082;-82
2022/06/25 17:21:46;;;;;;;2.37;1.17;;;25.10;99.90;;;;;;12364671;28;20392;-82
2022/06/25 17:27:49;;;;;;;2.75;1.13;;;25.30;99.90;;;;;;12360011;28;20049;-81
2022/06/25 17:33:50;;;;;;;3.70;1.20;;;25.20;99.90;;;;;;12370628;28;20046;-82
2022/06/25 17:39:53;;;;;;;2.78;1.10;;;25.10;99.90;;;;;;12365328;28;20051;-81
2022/06/25 17:45:55;;;;;;;5.72;1.30;;;25.30;99.90;;;;;;12358696;28;20095;-82
2022/06/25 17:51:57;;;;;;;3.27;1.07;;;25.50;99.90;;;;;;12349528;28;20051;-81
2022/06/25 17:57:59;;;;;;;3.45;1.45;;;25.70;99.90;;;;;;12385193;28;20554;-82
2022/06/25 18:04:00;;;;;;;2.97;1.40;;;25.90;99.90;;;;;;12360772;28;20038;-82
2022/06/25 18:10:04;;;;;;;3.10;1.50;;;26.00;99.90;;;;;;12367988;28;20069;-81
2022/06/25 18:16:06;;;;;;;3.58;2.08;;;25.80;99.90;;;;;;12374649;28;20054;-82
2022/06/25 18:22:08;;;;;;;3.20;2.13;;;25.70;99.90;;;;;;12353161;28;20528;-82
2022/06/25 18:28:09;;;;;;;3.30;1.38;;;25.50;99.90;;;;;;12369087;28;20058;-81
2022/06/25 18:34:11;;;;;;;3.53;1.35;;;25.20;99.90;;;;;;12367899;28;20042;-81
2022/06/25 18:40:13;;;;;;;2.83;1.55;;;24.90;99.90;;;;;;12371820;28;20077;-81
2022/06/25 18:46:14;;;;;;;3.30;1.35;;;24.80;99.90;;;;;;12383863;28;20057;-82
2022/06/25 18:52:16;;;;;;;3.35;1.77;;;24.60;99.90;;;;;;12363350;28;20046;-81
2022/06/25 18:58:18;;;;;;;4.15;1.38;;;24.50;99.90;;;;;;12380894;28;20055;-81
2022/06/25 19:04:20;;;;;;;5.57;1.40;;;24.50;99.90;;;;;;12371231;28;20042;-81
2022/06/25 19:10:22;;;;;;;6.40;1.63;;;24.40;99.90;;;;;;12376535;28;20053;-82
2022/06/25 19:16:24;;;;;;;2.35;1.40;;;24.20;99.90;;;;;;12383314;28;20057;-82
2022/06/25 19:22:26;;;;;;;3.65;1.48;;;24.00;99.90;;;;;;12374881;28;20089;-81
2022/06/25 19:28:27;;;;;;;4.68;1.25;;;23.90;99.90;;;;;;12371460;28;20423;-82
2022/06/25 19:34:36;;;;;;;2.30;1.10;;;23.70;99.90;;;;;;12369962;28;20184;-81
2022/06/25 19:40:38;;;;;;;3.72;1.40;;;23.70;99.90;;;;;;12354659;28;20065;-81
2022/06/25 19:46:42;;;;;;;2.83;1.50;;;23.50;99.90;;;;;;12398410;28;20047;-82
2022/06/25 19:52:44;;;;;;;4.38;1.52;;;23.20;99.90;;;;;;12375704;28;20046;-82
2022/06/25 19:58:46;;;;;;;2.75;1.60;;;23.10;99.90;;;;;;12368848;28;20058;-82
2022/06/25 20:04:49;;;;;;;3.50;1.52;;;23.00;99.90;;;;;;12387267;28;20494;-82
2022/06/25 20:10:52;;;;;;;1.90;1.40;;;22.90;99.90;;;;;;12385176;28;20050;-82
2022/06/25 20:16:54;;;;;;;3.05;1.63;;;22.80;99.90;;;;;;12375164;28;20066;-82
2022/06/25 20:22:56;;;;;;;5.53;1.50;;;22.60;99.90;;;;;;12378020;28;20046;-82
2022/06/25 20:28:58;;;;;;;3.72;1.70;;;22.40;99.90;;;;;;12355894;28;20116;-82
2022/06/25 20:35:03;;;;;;;4.10;1.65;;;22.30;99.90;;;;;;12360214;28;20097;-82
2022/06/25 20:41:05;;;;;;;4.05;1.73;;;22.20;99.90;;;;;;12356867;28;20047;-81
2022/06/25 20:47:07;;;;;;;3.65;1.70;;;22.10;99.90;;;;;;12364233;28;20047;-81
2022/06/25 20:53:13;;;;;;;2.75;1.60;;;22.00;99.90;;;;;;12344521;28;20051;-81
2022/06/25 20:59:15;;;;;;;6.03;1.80;;;21.90;99.90;;;;;;12356372;28;20491;-82
2022/06/25 21:11:37;;;;;;;2.97;1.50;;;21.70;99.90;;;;;;12376026;28;20057;-82
2022/06/25 21:17:40;;;;;;;3.08;1.60;;;21.70;99.90;;;;;;12385245;28;20518;-82
2022/06/25 21:23:41;;;;;;;3.97;1.70;;;21.80;99.90;;;;;;12385645;28;20157;-81
2022/06/25 21:29:44;;;;;;;3.28;1.83;;;21.60;99.90;;;;;;12383848;28;20047;-81
2022/06/25 21:35:46;;;;;;;4.30;1.53;;;21.50;99.90;;;;;;12381197;28;20097;-82
2022/06/25 21:41:47;;;;;;;4.00;1.83;;;21.30;99.90;;;;;;12386398;28;20391;-81
2022/06/25 21:47:49;;;;;;;2.85;1.70;;;21.30;99.90;;;;;;12414832;28;20042;-82
2022/06/25 21:53:51;;;;;;;3.20;1.75;;;21.10;99.90;;;;;;12378607;28;20189;-81
2022/06/25 21:59:53;;;;;;;3.65;1.92;;;21.00;99.90;;;;;;12408848;28;20072;-81
2022/06/25 22:05:55;;;;;;;3.60;1.80;;;21.00;99.90;;;;;;12366460;28;20061;-81
2022/06/25 22:11:57;;;;;;;3.03;1.90;;;21.10;99.90;;;;;;12388712;28;20054;-81
2022/06/25 22:18:00;;;;;;;5.75;1.83;;;21.00;99.90;;;;;;12375564;28;20120;-81
2022/06/25 22:24:02;;;;;;;5.73;1.77;;;21.00;99.90;;;;;;12369339;28;20499;-81
2022/06/25 22:30:04;;;;;;;5.97;1.90;;;21.10;99.90;;;;;;12375563;28;20482;-82
2022/06/25 22:36:06;;;;;;;3.60;1.80;;;21.00;99.90;;;;;;12387869;28;20042;-82
2022/06/25 22:42:08;;;;;;;5.13;1.80;;;20.80;99.90;;;;;;12378925;28;20050;-82
2022/06/25 22:48:11;;;;;;;3.60;1.63;;;21.00;99.90;;;;;;12382846;28;20070;-82
2022/06/25 22:54:13;;;;;;;4.00;1.60;;;21.10;99.90;;;;;;12379072;28;20054;-81
2022/06/25 23:00:15;;;;;;;4.50;1.70;;;21.20;99.90;;;;;;12384838;28;20054;-81
2022/06/25 23:06:17;;;;;;;3.53;1.58;;;21.40;99.90;;;;;;12381565;28;20062;-82
2022/06/25 23:12:19;;;;;;;3.15;1.80;;;21.30;99.90;;;;;;12401523;28;20128;-82
2022/06/25 23:18:22;;;;;;;2.50;1.77;;;21.40;99.90;;;;;;12380697;28;20051;-81
2022/06/25 23:24:23;;;;;;;3.45;2.00;;;21.40;99.90;;;;;;12371904;28;20043;-81
2022/06/25 23:30:25;;;;;;;4.93;1.92;;;21.40;99.90;;;;;;12387675;28;20850;-82
2022/06/25 23:36:27;;;;;;;3.42;1.92;;;21.50;99.90;;;;;;12393079;28;20175;-82
2022/06/25 23:42:29;;;;;;;3.25;1.90;;;21.50;99.90;;;;;;12372470;28;20051;-82
2022/06/25 23:48:30;;;;;;;3.72;1.92;;;21.60;99.90;;;;;;12355614;28;20545;-81
2022/06/25 23:54:32;;;;;;;3.15;1.90;;;21.60;99.90;;;;;;12373585;28;20550;-81
